To NAV CANADA Home Page Login to a new session Search on AWWS site Feedback and Comments Disclaimer Vers la page française équivalente Tips FAQ What's new on the site To the Forecasts and Observations / NOTAM section To "File a Flight Plan" website Publications and other links Update of the User's profile FIC Telephone Numbers My Weather Data Folder Route Weather Data Regional Weather Data Local Weather Data To the Forecasts and Observations / NOTAM section
Request Generated 04/20/2014 at 08:37:36 UTC . Weather information available at that time is displayed.

METAR/TAF

CLYDE RIVER/NU    (show WxCam)

METAR CYCY 200800Z AUTO 31012KT 9SM -SN OVC025 M13/M15 A2995 RMK
SLP146=
SPECI CYCY 200715Z AUTO 31012KT 9SM -SN OVC025 M13/M16 A2995 RMK
SLP144=
METAR CYCY 200700Z AUTO 31013KT 9SM -SN OVC023 M13/M16 A2994 RMK
SLP143=
METAR CYCY 200600Z AUTO 31013KT 9SM -SN OVC023 M13/M16 A2993 RMK
SLP138=

TAF CYCY 200639Z 2007/2019 31012KT P6SM BKN030 TEMPO 2007/2019 3SM
-SN BR OVC020
RMK FCST BASED ON AUTO OBS. NXT FCST BY 201300Z=
Your time UTC time
Weather data provided by Environment Canada and NAV CANADA